Time;durP1;ratioP1;P1;durP2;ratioP2;P2;SDS_P1;SDS_P2;PMS_P1;PMS_P2;Temp;Humidity;BMP_temperature;BMP_pressure;BME280_temperature;BME280_humidity;BME280_pressure;Samples;Min_cycle;Max_cycle;Signal;HPM_P1;HPM_P2
2021/07/20 00:01:00;;;;;;;7.53;5.95;;;;;;;;;;2055123;28;100074;-12
2021/07/20 00:02:24;;;;;;;7.32;6.55;;;;;;;;;;2055384;28;99980;-13
2021/07/20 00:03:25;;;;;;;7.57;6.60;;;;;;;;;;2072148;28;99929;-12
2021/07/20 00:04:26;;;;;;;7.05;6.45;;;;;;;;;;2071911;28;99912;-12
2021/07/20 00:05:28;;;;;;;;;;;;;;;;;;2072432;28;99876;-12
2021/07/20 00:06:29;;;;;;;6.75;6.15;;;;;;;;;;2071691;28;99907;-14
2021/07/20 00:07:30;;;;;;;6.55;5.80;;;;;;;;;;2072143;28;99936;-12
2021/07/20 00:08:31;;;;;;;7.00;6.40;;;;;;;;;;2072935;28;99896;-13
2021/07/20 00:09:32;;;;;;;;;;;;;;;;;;2073027;28;99837;-12
2021/07/20 00:10:43;;;;;;;6.30;5.70;;;;;;;;;;2072026;28;100000;-12
2021/07/20 00:11:44;;;;;;;6.47;5.85;;;;;;;;;;2071974;28;100712;-13
2021/07/20 00:12:45;;;;;;;7.13;6.43;;;;;;;;;;2072934;28;99864;-13
2021/07/20 00:13:46;;;;;;;6.97;6.28;;;;;;;;;;2072743;28;100038;-13
2021/07/20 00:14:47;;;;;;;6.72;6.03;;;;;;;;;;2072857;28;99825;-12
2021/07/20 00:15:51;;;;;;;6.88;6.18;;;;;;;;;;2072764;28;99949;-13
2021/07/20 00:16:55;;;;;;;6.28;5.68;;;;;;;;;;2072928;28;99897;-13
2021/07/20 00:17:59;;;;;;;7.13;5.97;;;;;;;;;;2072619;28;99853;-13
2021/07/20 00:19:00;;;;;;;6.95;5.97;;;;;;;;;;2072572;28;101895;-13
2021/07/20 00:20:05;;;;;;;6.53;5.93;;;;;;;;;;2072336;28;99920;-13
2021/07/20 00:21:09;;;;;;;7.32;6.43;;;;;;;;;;2072377;28;100290;-13
2021/07/20 00:22:10;;;;;;;6.60;6.00;;;;;;;;;;2072166;28;99834;-14
2021/07/20 00:23:11;;;;;;;6.55;5.93;;;;;;;;;;2071596;28;100105;-13
2021/07/20 00:24:12;;;;;;;6.10;5.55;;;;;;;;;;2071501;28;99937;-13
2021/07/20 00:25:14;;;;;;;;;;;;;;;;;;2072093;28;99901;-14
2021/07/20 00:26:15;;;;;;;6.38;5.72;;;;;;;;;;2071223;28;100186;-13
2021/07/20 00:27:16;;;;;;;7.57;5.47;;;;;;;;;;2071719;28;100001;-13
2021/07/20 00:28:18;;;;;;;6.90;6.20;;;;;;;;;;2071082;28;100031;-13
2021/07/20 00:29:19;;;;;;;6.60;6.00;;;;;;;;;;2071929;28;100102;-12
2021/07/20 00:30:20;;;;;;;;;;;;;;;;;;2072713;28;100054;-13
2021/07/20 00:31:21;;;;;;;6.68;5.80;;;;;;;;;;2072217;28;99983;-13
2021/07/20 00:32:22;;;;;;;6.40;5.72;;;;;;;;;;2062800;28;100176;-13
2021/07/20 00:33:23;;;;;;;;;;;;;;;;;;2063512;28;100170;-14
2021/07/20 00:34:24;;;;;;;6.35;5.75;;;;;;;;;;2071341;28;100412;-14
2021/07/20 00:35:25;;;;;;;7.10;5.38;;;;;;;;;;2071776;28;100204;-13
2021/07/20 00:36:26;;;;;;;6.00;5.47;;;;;;;;;;2071822;28;100050;-15
2021/07/20 00:37:27;;;;;;;6.45;5.85;;;;;;;;;;2072436;28;99989;-14
2021/07/20 00:38:28;;;;;;;;;;;;;;;;;;2063549;28;99944;-13
2021/07/20 00:39:35;;;;;;;6.40;5.82;;;;;;;;;;2056123;28;102041;-14
2021/07/20 00:40:35;;;;;;;;;;;;;;;;;;2063994;28;100128;-13
2021/07/20 00:41:39;;;;;;;5.55;5.05;;;;;;;;;;2063990;28;100078;-14
2021/07/20 00:42:41;;;;;;;5.78;5.28;;;;;;;;;;2063055;28;100118;-13
2021/07/20 00:43:42;;;;;;;6.00;5.40;;;;;;;;;;2071741;28;100059;-13
2021/07/20 00:44:43;;;;;;;6.15;5.65;;;;;;;;;;2063274;28;99983;-13
2021/07/20 00:45:44;;;;;;;6.28;5.78;;;;;;;;;;2063203;28;100117;-12
2021/07/20 00:46:46;;;;;;;5.97;5.35;;;;;;;;;;2063796;28;99873;-14
2021/07/20 00:47:47;;;;;;;;;;;;;;;;;;2063593;28;100055;-13
2021/07/20 00:48:49;;;;;;;6.43;5.85;;;;;;;;;;2063743;28;99934;-13
2021/07/20 00:50:09;;;;;;;5.93;5.43;;;;;;;;;;2066726;28;100132;-13
2021/07/20 00:51:13;;;;;;;6.07;5.53;;;;;;;;;;2073061;28;100090;-13
2021/07/20 00:52:14;;;;;;;6.68;6.03;;;;;;;;;;2064762;28;100071;-13
2021/07/20 00:53:17;;;;;;;6.03;5.45;;;;;;;;;;2048269;28;100000;-14
2021/07/20 00:54:29;;;;;;;6.45;5.85;;;;;;;;;;2059831;28;100234;-13
2021/07/20 00:55:35;;;;;;;6.35;5.75;;;;;;;;;;2065039;28;99970;-13
2021/07/20 00:56:37;;;;;;;6.20;5.70;;;;;;;;;;2072964;28;100180;-13
2021/07/20 00:57:40;;;;;;;6.07;5.50;;;;;;;;;;2073716;28;99999;-12
2021/07/20 00:58:43;;;;;;;6.38;5.88;;;;;;;;;;2073306;28;100022;-13
2021/07/20 00:59:45;;;;;;;6.22;5.63;;;;;;;;;;2072913;28;100063;-12
2021/07/20 01:00:49;;;;;;;6.43;5.88;;;;;;;;;;2073385;28;100110;-13
2021/07/20 01:01:50;;;;;;;5.75;5.25;;;;;;;;;;2072151;28;99945;-14
2021/07/20 01:02:52;;;;;;;5.95;5.38;;;;;;;;;;2064841;28;100160;-13
2021/07/20 01:03:54;;;;;;;6.25;5.65;;;;;;;;;;2073056;28;100005;-15
2021/07/20 01:04:58;;;;;;;6.75;6.15;;;;;;;;;;2073173;28;99819;-12
2021/07/20 01:06:02;;;;;;;6.57;6.07;;;;;;;;;;2073369;28;99994;-13
2021/07/20 01:07:04;;;;;;;6.45;5.85;;;;;;;;;;2073187;28;99950;-15
2021/07/20 01:08:05;;;;;;;6.25;5.75;;;;;;;;;;2073040;28;100052;-12
2021/07/20 01:09:09;;;;;;;6.55;5.95;;;;;;;;;;2065059;28;99909;-12
2021/07/20 01:10:16;;;;;;;6.68;6.07;;;;;;;;;;2065512;28;99997;-12
2021/07/20 01:11:18;;;;;;;6.57;6.07;;;;;;;;;;2065349;28;99792;-13
2021/07/20 01:12:24;;;;;;;6.55;5.95;;;;;;;;;;2056685;28;100048;-12
2021/07/20 01:13:27;;;;;;;5.38;4.97;;;;;;;;;;2065532;28;100108;-12
2021/07/20 01:14:29;;;;;;;6.38;5.78;;;;;;;;;;2072756;28;99922;-12
2021/07/20 01:15:31;;;;;;;6.60;5.97;;;;;;;;;;2073245;28;99997;-13
2021/07/20 01:16:34;;;;;;;5.82;5.32;;;;;;;;;;2064550;28;100318;-14
2021/07/20 01:17:38;;;;;;;6.38;5.88;;;;;;;;;;2066001;28;99910;-14
2021/07/20 01:18:39;;;;;;;5.88;5.38;;;;;;;;;;2073203;28;99954;-13
2021/07/20 01:19:51;;;;;;;6.72;6.10;;;;;;;;;;2065096;28;100003;-13
2021/07/20 01:20:53;;;;;;;6.43;5.82;;;;;;;;;;2057647;28;100004;-13
2021/07/20 01:21:57;;;;;;;6.28;5.68;;;;;;;;;;2057118;28;100434;-16
2021/07/20 01:23:22;;;;;;;6.47;5.90;;;;;;;;;;2073112;28;100027;-12
2021/07/20 01:24:28;;;;;;;6.50;5.90;;;;;;;;;;2068586;28;100015;-12
2021/07/20 01:25:30;;;;;;;6.25;5.75;;;;;;;;;;2056663;28;99923;-13
2021/07/20 01:26:31;;;;;;;7.45;6.85;;;;;;;;;;2064646;28;100027;-13
2021/07/20 01:27:32;;;;;;;6.60;5.97;;;;;;;;;;2065026;28;100193;-13
2021/07/20 01:28:36;;;;;;;5.97;5.38;;;;;;;;;;2072784;28;99869;-13
2021/07/20 01:29:40;;;;;;;6.25;5.75;;;;;;;;;;2072963;28;99907;-12
2021/07/20 01:30:47;;;;;;;6.90;6.25;;;;;;;;;;2065560;28;100015;-13
2021/07/20 01:31:51;;;;;;;6.38;5.88;;;;;;;;;;2065229;28;99945;-13
2021/07/20 01:32:55;;;;;;;6.15;5.60;;;;;;;;;;2065314;28;99952;-13
2021/07/20 01:33:59;;;;;;;6.07;5.47;;;;;;;;;;2073341;28;99813;-13
2021/07/20 01:35:04;;;;;;;6.60;6.03;;;;;;;;;;2064353;28;100033;-13
2021/07/20 01:36:07;;;;;;;6.30;5.70;;;;;;;;;;2057233;28;100046;-13
2021/07/20 01:37:12;;;;;;;5.80;5.35;;;;;;;;;;2064824;28;99864;-13
2021/07/20 01:38:15;;;;;;;6.57;5.95;;;;;;;;;;2065716;28;100009;-14
2021/07/20 01:39:17;;;;;;;6.07;5.57;;;;;;;;;;2072556;28;99937;-13
2021/07/20 01:40:20;;;;;;;5.90;5.40;;;;;;;;;;2072967;28;99877;-13
2021/07/20 01:41:21;;;;;;;6.20;5.70;;;;;;;;;;2073434;28;99961;-12
2021/07/20 01:42:22;;;;;;;6.38;5.88;;;;;;;;;;2073886;28;100003;-13
2021/07/20 01:43:27;;;;;;;6.32;5.80;;;;;;;;;;2073668;28;99802;-13
2021/07/20 01:44:28;;;;;;;6.03;5.53;;;;;;;;;;2073501;28;99959;-13
2021/07/20 01:45:32;;;;;;;6.53;5.88;;;;;;;;;;2073493;28;100083;-13
2021/07/20 01:46:36;;;;;;;7.13;6.53;;;;;;;;;;2072905;28;99924;-14
2021/07/20 01:47:40;;;;;;;6.60;5.97;;;;;;;;;;2072963;28;99959;-14
2021/07/20 01:48:45;;;;;;;6.78;6.18;;;;;;;;;;2073704;28;99982;-13
2021/07/20 01:49:50;;;;;;;6.35;5.85;;;;;;;;;;2064419;28;99950;-13
2021/07/20 01:50:52;;;;;;;7.40;6.80;;;;;;;;;;2057114;28;99914;-14
2021/07/20 01:51:54;;;;;;;7.40;6.70;;;;;;;;;;2073122;28;99978;-17
2021/07/20 01:52:57;;;;;;;7.15;6.45;;;;;;;;;;2072921;28;99977;-15
2021/07/20 01:54:00;;;;;;;8.32;7.63;;;;;;;;;;2073075;28;100015;-12
2021/07/20 01:55:03;;;;;;;6.78;6.18;;;;;;;;;;2072703;28;99985;-13
2021/07/20 01:56:08;;;;;;;7.72;7.03;;;;;;;;;;2072857;28;99897;-12
2021/07/20 01:57:11;;;;;;;7.32;6.63;;;;;;;;;;2072643;28;100010;-15
2021/07/20 01:58:31;;;;;;;7.15;6.55;;;;;;;;;;2073137;28;100232;-13
2021/07/20 01:59:50;;;;;;;7.15;6.55;;;;;;;;;;2073365;28;99909;-14
2021/07/20 02:01:38;;;;;;;6.18;5.68;;;;;;;;;;2073557;28;100110;-13
2021/07/20 02:09:25;;;;;;;7.75;7.05;;;;;;;;;;2068077;28;100078;-13
2021/07/20 02:10:29;;;;;;;7.85;7.22;;;;;;;;;;2064232;28;99919;-13
2021/07/20 02:11:40;;;;;;;8.55;7.75;;;;;;;;;;2059509;28;99886;-13
2021/07/20 02:12:48;;;;;;;8.52;7.72;;;;;;;;;;2065312;28;100062;-13
2021/07/20 02:14:09;;;;;;;8.05;7.43;;;;;;;;;;2066240;28;100022;-13
2021/07/20 02:15:29;;;;;;;7.82;7.13;;;;;;;;;;2073391;28;100139;-13
2021/07/20 02:16:52;;;;;;;7.93;7.22;;;;;;;;;;2071303;28;99963;-13
2021/07/20 02:17:54;;;;;;;7.63;6.93;;;;;;;;;;2067896;28;99989;-13
2021/07/20 02:19:07;;;;;;;7.50;6.80;;;;;;;;;;2064820;28;100002;-13
2021/07/20 02:20:29;;;;;;;8.13;7.43;;;;;;;;;;2067809;28;99977;-13
2021/07/20 02:21:47;;;;;;;8.33;7.70;;;;;;;;;;2065817;28;100399;-13
2021/07/20 02:22:52;;;;;;;9.90;9.00;;;;;;;;;;2065660;28;99952;-13
2021/07/20 02:23:54;;;;;;;9.85;8.88;;;;;;;;;;2072958;28;99993;-13
2021/07/20 02:24:56;;;;;;;9.75;8.85;;;;;;;;;;2072893;28;99848;-13
2021/07/20 02:25:59;;;;;;;9.50;8.70;;;;;;;;;;2064670;28;100008;-13
2021/07/20 02:27:06;;;;;;;9.43;8.52;;;;;;;;;;2072831;28;100964;-13
2021/07/20 02:28:18;;;;;;;8.85;8.15;;;;;;;;;;2072016;28;100089;-13
2021/07/20 02:29:21;;;;;;;11.43;10.30;;;;;;;;;;2064271;28;99820;-13
2021/07/20 02:30:23;;;;;;;10.73;9.75;;;;;;;;;;2064642;28;99957;-13
2021/07/20 02:31:27;;;;;;;10.30;9.40;;;;;;;;;;2064815;28;100128;-13
2021/07/20 02:32:31;;;;;;;11.88;10.77;;;;;;;;;;2064566;28;99802;-12
2021/07/20 02:33:36;;;;;;;11.85;10.65;;;;;;;;;;2064340;28;100179;-13
2021/07/20 02:34:39;;;;;;;11.57;10.48;;;;;;;;;;2064842;28;99960;-13
2021/07/20 02:35:41;;;;;;;12.60;11.40;;;;;;;;;;2064511;28;100079;-13
2021/07/20 02:36:57;;;;;;;12.35;11.25;;;;;;;;;;2066607;28;99827;-13
2021/07/20 02:38:00;;;;;;;11.90;10.88;;;;;;;;;;2064529;28;99998;-13
2021/07/20 02:39:07;;;;;;;12.82;11.63;;;;;;;;;;2065402;28;99904;-13
2021/07/20 02:40:13;;;;;;;12.95;11.75;;;;;;;;;;2065453;28;100265;-13
2021/07/20 02:41:18;;;;;;;13.90;12.50;;;;;;;;;;2064243;28;99908;-13
2021/07/20 02:42:23;;;;;;;13.00;11.77;;;;;;;;;;2057409;28;99903;-14
2021/07/20 02:43:26;;;;;;;12.07;10.80;;;;;;;;;;2056074;28;100046;-13
2021/07/20 02:44:29;;;;;;;11.55;10.38;;;;;;;;;;2064305;28;100168;-13
2021/07/20 02:45:35;;;;;;;11.82;10.68;;;;;;;;;;2071770;28;99952;-12
2021/07/20 02:46:42;;;;;;;11.55;10.45;;;;;;;;;;2065380;28;100041;-12
2021/07/20 02:47:44;;;;;;;11.23;10.13;;;;;;;;;;2064680;28;100611;-14
2021/07/20 02:48:47;;;;;;;11.05;9.95;;;;;;;;;;2064448;28;100026;-13
2021/07/20 02:49:50;;;;;;;10.10;9.13;;;;;;;;;;2064456;28;99907;-14
2021/07/20 02:50:54;;;;;;;11.38;10.32;;;;;;;;;;2072701;28;99961;-17
2021/07/20 02:52:03;;;;;;;11.15;10.05;;;;;;;;;;2065576;28;99970;-13
2021/07/20 02:53:06;;;;;;;11.18;10.05;;;;;;;;;;2064382;28;99886;-16
2021/07/20 02:54:20;;;;;;;12.55;11.35;;;;;;;;;;2065625;28;99957;-12
2021/07/20 02:55:22;;;;;;;12.30;11.20;;;;;;;;;;2064872;28;100083;-12
2021/07/20 02:56:28;;;;;;;12.10;10.90;;;;;;;;;;2072350;28;99949;-13
2021/07/20 02:57:36;;;;;;;10.05;9.15;;;;;;;;;;2072728;28;100245;-12
2021/07/20 02:58:42;;;;;;;13.73;12.48;;;;;;;;;;2065357;28;100059;-12
2021/07/20 02:59:46;;;;;;;12.43;11.13;;;;;;;;;;2056211;28;99931;-12
2021/07/20 03:00:55;;;;;;;12.13;11.02;;;;;;;;;;2057698;28;100151;-15
2021/07/20 03:01:59;;;;;;;12.23;11.13;;;;;;;;;;2072748;28;99966;-13
2021/07/20 03:03:02;;;;;;;12.10;10.90;;;;;;;;;;2073081;28;100369;-13
2021/07/20 03:04:10;;;;;;;12.73;11.52;;;;;;;;;;2072479;28;99857;-14
2021/07/20 03:05:15;;;;;;;12.43;11.23;;;;;;;;;;2072462;28;99870;-12
2021/07/20 03:06:21;;;;;;;11.77;10.68;;;;;;;;;;2072689;28;99932;-13
2021/07/20 03:07:27;;;;;;;12.80;11.60;;;;;;;;;;2071963;28;99969;-13
2021/07/20 03:08:29;;;;;;;12.82;11.60;;;;;;;;;;2064915;28;100142;-13
2021/07/20 03:09:51;;;;;;;;;;;;;;;;;;2072378;28;100016;-13
2021/07/20 03:10:56;;;;;;;12.00;10.80;;;;;;;;;;2072029;28;100199;-13
2021/07/20 03:12:04;;;;;;;11.55;10.45;;;;;;;;;;2064047;28;99987;-13
2021/07/20 03:13:10;;;;;;;12.65;11.40;;;;;;;;;;2065607;28;99997;-13
2021/07/20 03:14:25;;;;;;;12.32;11.23;;;;;;;;;;2072683;28;100449;-14
2021/07/20 03:16:01;;;;;;;11.80;10.70;;;;;;;;;;2047280;28;100077;-13
2021/07/20 03:17:04;;;;;;;11.50;10.43;;;;;;;;;;2065803;28;100246;-13
2021/07/20 03:18:11;;;;;;;12.60;11.40;;;;;;;;;;2056466;28;99816;-12
2021/07/20 03:19:17;;;;;;;12.20;11.10;;;;;;;;;;2065936;28;99889;-13
2021/07/20 03:20:20;;;;;;;12.70;11.50;;;;;;;;;;2073252;28;99807;-13
2021/07/20 03:21:23;;;;;;;12.23;11.13;;;;;;;;;;2072650;28;99977;-14
2021/07/20 03:22:28;;;;;;;12.55;11.45;;;;;;;;;;2072325;28;100181;-13
2021/07/20 03:23:33;;;;;;;12.95;11.75;;;;;;;;;;2064648;28;100487;-13
2021/07/20 03:24:38;;;;;;;12.20;11.07;;;;;;;;;;2056408;28;99966;-13
2021/07/20 03:25:42;;;;;;;12.45;11.35;;;;;;;;;;2065535;28;100066;-14
2021/07/20 03:26:44;;;;;;;12.27;11.18;;;;;;;;;;2072526;28;100130;-13
2021/07/20 03:27:49;;;;;;;13.50;12.18;;;;;;;;;;2064355;28;100113;-15
2021/07/20 03:28:55;;;;;;;14.27;12.77;;;;;;;;;;2063789;28;100051;-15
2021/07/20 03:29:58;;;;;;;13.18;11.88;;;;;;;;;;2064141;28;100074;-13
2021/07/20 03:31:00;;;;;;;12.80;11.57;;;;;;;;;;2064663;28;99869;-13
2021/07/20 03:32:02;;;;;;;14.65;13.25;;;;;;;;;;2064400;28;100081;-13
2021/07/20 03:33:05;;;;;;;13.65;12.38;;;;;;;;;;2064398;28;100125;-14
2021/07/20 03:34:19;;;;;;;14.52;13.07;;;;;;;;;;2072385;28;99946;-13
2021/07/20 03:35:22;;;;;;;14.63;13.15;;;;;;;;;;2072240;28;99843;-13
2021/07/20 03:36:26;;;;;;;14.98;13.30;;;;;;;;;;2072472;28;100077;-15
2021/07/20 03:37:28;;;;;;;14.02;12.73;;;;;;;;;;2072375;28;99844;-14
2021/07/20 03:38:30;;;;;;;16.02;14.32;;;;;;;;;;2072243;28;100108;-13
2021/07/20 03:39:40;;;;;;;16.13;14.43;;;;;;;;;;2072941;28;99796;-13
2021/07/20 03:40:47;;;;;;;13.95;12.18;;;;;;;;;;2072366;28;99917;-13
2021/07/20 03:41:48;;;;;;;14.48;13.07;;;;;;;;;;2072228;28;99861;-14
2021/07/20 03:42:52;;;;;;;13.77;12.38;;;;;;;;;;2072366;28;99958;-12
2021/07/20 03:43:57;;;;;;;19.90;17.30;;;;;;;;;;2064858;28;99891;-13
2021/07/20 03:45:03;;;;;;;21.80;18.25;;;;;;;;;;2064554;28;100051;-15
2021/07/20 03:46:05;;;;;;;18.85;16.77;;;;;;;;;;2063957;28;100006;-13
2021/07/20 03:47:08;;;;;;;16.48;14.77;;;;;;;;;;2072493;28;100250;-14
2021/07/20 03:48:13;;;;;;;20.77;17.52;;;;;;;;;;2063752;28;100091;-12
2021/07/20 03:49:39;;;;;;;21.35;17.10;;;;;;;;;;2063072;28;99902;-14
2021/07/20 03:50:46;;;;;;;19.63;16.92;;;;;;;;;;2064639;28;99909;-13
2021/07/20 03:51:47;;;;;;;19.73;17.33;;;;;;;;;;2072584;28;99975;-13
2021/07/20 03:52:50;;;;;;;19.42;16.20;;;;;;;;;;2071944;28;99931;-12
2021/07/20 03:53:52;;;;;;;19.95;16.98;;;;;;;;;;2064238;28;100016;-14
2021/07/20 03:54:53;;;;;;;20.88;17.42;;;;;;;;;;2063933;28;99952;-14
2021/07/20 03:55:59;;;;;;;20.25;17.52;;;;;;;;;;2064534;28;99845;-14
2021/07/20 03:57:04;;;;;;;20.75;18.02;;;;;;;;;;2064494;28;100119;-14
2021/07/20 03:58:14;;;;;;;21.05;18.25;;;;;;;;;;2065235;28;99929;-13
2021/07/20 03:59:16;;;;;;;20.45;17.33;;;;;;;;;;2071975;28;100122;-13
2021/07/20 04:00:37;;;;;;;21.63;18.88;;;;;;;;;;2072770;28;99804;-14
2021/07/20 04:01:45;;;;;;;19.10;16.75;;;;;;;;;;2071724;28;100011;-13
2021/07/20 04:02:56;;;;;;;20.83;17.20;;;;;;;;;;2064925;28;100013;-14
2021/07/20 04:04:21;;;;;;;22.50;18.05;;;;;;;;;;2072036;28;99798;-13
2021/07/20 04:05:54;;;;;;;23.13;18.30;;;;;;;;;;2070535;27;99953;-12
2021/07/20 04:06:59;;;;;;;21.17;17.60;;;;;;;;;;2071870;28;99948;-13
2021/07/20 04:08:12;;;;;;;22.43;18.63;;;;;;;;;;2072234;28;100082;-12
2021/07/20 04:09:24;;;;;;;21.85;17.80;;;;;;;;;;2072214;28;99830;-24
2021/07/20 04:11:01;;;;;;;22.73;18.55;;;;;;;;;;2064949;28;100114;-14
2021/07/20 04:12:13;;;;;;;23.48;18.88;;;;;;;;;;2065127;28;99807;-13
2021/07/20 04:13:36;;;;;;;22.60;18.42;;;;;;;;;;2046598;28;100119;-14
2021/07/20 04:14:53;;;;;;;22.67;19.25;;;;;;;;;;2065626;28;100051;-13
2021/07/20 04:15:58;;;;;;;22.55;18.67;;;;;;;;;;2055933;28;100063;-14
2021/07/20 04:17:02;;;;;;;23.13;18.83;;;;;;;;;;2064478;28;99844;-13
2021/07/20 04:18:03;;;;;;;21.80;18.20;;;;;;;;;;2072698;28;99952;-14
2021/07/20 04:19:09;;;;;;;25.08;19.88;;;;;;;;;;2071952;28;100128;-14
2021/07/20 04:20:36;;;;;;;24.60;19.55;;;;;;;;;;2072077;28;99960;-13
2021/07/20 04:21:38;;;;;;;25.08;19.55;;;;;;;;;;2063752;28;99868;-14
2021/07/20 04:22:41;;;;;;;24.83;19.08;;;;;;;;;;2064318;28;99910;-14
2021/07/20 04:23:44;;;;;;;26.02;20.05;;;;;;;;;;2065132;28;100257;-14
2021/07/20 04:24:57;;;;;;;25.65;19.98;;;;;;;;;;2057955;28;99811;-13
2021/07/20 04:26:08;;;;;;;23.25;19.08;;;;;;;;;;2058673;28;100088;-13
2021/07/20 04:27:15;;;;;;;24.00;20.30;;;;;;;;;;2073423;28;100287;-14
2021/07/20 04:28:18;;;;;;;23.83;19.17;;;;;;;;;;2073763;28;99863;-12
2021/07/20 04:29:19;;;;;;;24.77;20.00;;;;;;;;;;2074352;28;99789;-13
2021/07/20 04:30:21;;;;;;;24.52;19.00;;;;;;;;;;2074167;28;99968;-14
2021/07/20 04:31:29;;;;;;;24.50;19.75;;;;;;;;;;2073760;28;99996;-14
2021/07/20 04:32:32;;;;;;;21.58;18.58;;;;;;;;;;2066345;28;100213;-19
2021/07/20 04:33:39;;;;;;;24.27;19.92;;;;;;;;;;2066267;28;100238;-14
2021/07/20 04:35:19;;;;;;;23.92;19.63;;;;;;;;;;2056511;28;100379;-13
2021/07/20 04:36:29;;;;;;;23.15;20.20;;;;;;;;;;2056813;28;99889;-12
2021/07/20 04:37:40;;;;;;;23.77;19.38;;;;;;;;;;2039386;28;99984;-13
2021/07/20 04:38:42;;;;;;;24.50;19.92;;;;;;;;;;2040899;28;99957;-14
2021/07/20 04:39:44;;;;;;;23.50;19.58;;;;;;;;;;2048542;28;100504;-13
2021/07/20 04:40:49;;;;;;;26.23;19.38;;;;;;;;;;2048948;28;99862;-14
2021/07/20 04:41:53;;;;;;;24.98;19.83;;;;;;;;;;2073763;28;99934;-13
2021/07/20 04:42:55;;;;;;;24.65;19.42;;;;;;;;;;2073173;28;100020;-14
2021/07/20 04:43:57;;;;;;;22.98;19.55;;;;;;;;;;2065469;28;99952;-14
2021/07/20 04:45:11;;;;;;;24.65;19.40;;;;;;;;;;2066973;28;100107;-15
2021/07/20 04:46:20;;;;;;;26.08;20.58;;;;;;;;;;2065981;28;99972;-13
2021/07/20 04:47:23;;;;;;;24.10;19.20;;;;;;;;;;2065547;28;99982;-13
2021/07/20 04:48:30;;;;;;;24.90;19.92;;;;;;;;;;2065690;28;100186;-14
2021/07/20 04:49:47;;;;;;;25.10;19.88;;;;;;;;;;2067495;28;100402;-13
2021/07/20 04:50:51;;;;;;;25.88;19.92;;;;;;;;;;2064555;28;100328;-13
2021/07/20 04:51:52;;;;;;;24.40;20.17;;;;;;;;;;2065649;28;100002;-14
2021/07/20 04:52:55;;;;;;;23.55;19.85;;;;;;;;;;2065234;28;100079;-14
2021/07/20 04:53:57;;;;;;;23.00;18.77;;;;;;;;;;2065018;28;99993;-15
2021/07/20 04:54:59;;;;;;;25.40;20.85;;;;;;;;;;2065263;28;99841;-14
2021/07/20 04:56:00;;;;;;;24.70;19.38;;;;;;;;;;2065204;28;99929;-13
2021/07/20 04:57:02;;;;;;;24.80;19.88;;;;;;;;;;2064710;28;99820;-13
2021/07/20 04:58:08;;;;;;;23.35;19.35;;;;;;;;;;2065126;28;100059;-14
2021/07/20 04:59:14;;;;;;;24.33;19.88;;;;;;;;;;2058281;28;100415;-15
2021/07/20 05:00:16;;;;;;;24.63;20.27;;;;;;;;;;2066044;28;100221;-13
2021/07/20 05:01:18;;;;;;;26.20;19.90;;;;;;;;;;2064979;28;99845;-14
2021/07/20 05:02:20;;;;;;;24.02;19.80;;;;;;;;;;2073437;28;99826;-14
2021/07/20 05:03:30;;;;;;;23.52;20.10;;;;;;;;;;2073843;28;99802;-13
2021/07/20 05:04:31;;;;;;;24.00;19.60;;;;;;;;;;2074093;28;99928;-13
2021/07/20 05:05:38;;;;;;;23.05;19.02;;;;;;;;;;2073033;28;100075;-13
2021/07/20 05:06:47;;;;;;;23.83;19.60;;;;;;;;;;2066520;28;100037;-13
2021/07/20 05:07:53;;;;;;;22.90;19.02;;;;;;;;;;2073169;28;99926;-13
2021/07/20 05:08:56;;;;;;;24.20;19.58;;;;;;;;;;2073017;28;100116;-14
2021/07/20 05:09:57;;;;;;;24.42;20.13;;;;;;;;;;2064605;28;100011;-14
2021/07/20 05:11:01;;;;;;;23.65;19.23;;;;;;;;;;2065399;28;99876;-15
2021/07/20 05:12:08;;;;;;;25.65;20.15;;;;;;;;;;2057159;28;100045;-13
2021/07/20 05:13:20;;;;;;;23.55;19.30;;;;;;;;;;2067263;28;100047;-13
2021/07/20 05:14:22;;;;;;;24.95;19.33;;;;;;;;;;2073277;28;99963;-14
2021/07/20 05:15:25;;;;;;;23.02;19.48;;;;;;;;;;2065343;28;100067;-13
2021/07/20 05:16:26;;;;;;;24.13;19.13;;;;;;;;;;2073150;28;100079;-14
2021/07/20 05:17:35;;;;;;;22.90;19.33;;;;;;;;;;2074279;28;99983;-13
2021/07/20 05:18:37;;;;;;;23.23;19.77;;;;;;;;;;2072824;28;100373;-14
2021/07/20 05:19:46;;;;;;;26.67;20.42;;;;;;;;;;2072620;28;100074;-19
2021/07/20 05:20:57;;;;;;;22.67;18.38;;;;;;;;;;2072864;28;100052;-14
2021/07/20 05:22:01;;;;;;;22.65;18.85;;;;;;;;;;2065164;28;100047;-12
2021/07/20 05:23:16;;;;;;;21.92;18.85;;;;;;;;;;2067086;28;100046;-13
2021/07/20 05:24:21;;;;;;;20.70;17.77;;;;;;;;;;2072869;28;100047;-14
2021/07/20 05:25:29;;;;;;;24.65;19.02;;;;;;;;;;2073500;28;99935;-16
2021/07/20 05:26:31;;;;;;;23.75;18.73;;;;;;;;;;2064826;28;100156;-14
2021/07/20 05:27:49;;;;;;;22.33;18.60;;;;;;;;;;2064962;28;99905;-14
2021/07/20 05:28:51;;;;;;;22.88;18.42;;;;;;;;;;2073017;28;100055;-12
2021/07/20 05:29:53;;;;;;;22.88;18.98;;;;;;;;;;2064957;28;99969;-13
2021/07/20 05:31:06;;;;;;;23.00;19.52;;;;;;;;;;2066511;28;99938;-11
2021/07/20 05:32:10;;;;;;;22.13;18.88;;;;;;;;;;2064469;28;99945;-14
2021/07/20 05:33:12;;;;;;;22.67;18.58;;;;;;;;;;2065397;28;99987;-11
2021/07/20 05:34:32;;;;;;;21.83;19.02;;;;;;;;;;2067198;28;99959;-12
2021/07/20 05:35:35;;;;;;;23.05;19.48;;;;;;;;;;2073298;28;100105;-12
2021/07/20 05:36:36;;;;;;;22.85;19.40;;;;;;;;;;2073821;28;99979;-14
2021/07/20 05:37:40;;;;;;;24.15;19.17;;;;;;;;;;2073286;28;100530;-14
2021/07/20 05:38:42;;;;;;;23.10;18.45;;;;;;;;;;2065354;28;100064;-12
2021/07/20 05:40:04;;;;;;;21.23;17.95;;;;;;;;;;2073437;28;99916;-14
2021/07/20 05:41:13;;;;;;;20.10;17.88;;;;;;;;;;2072874;28;99968;-15
2021/07/20 05:42:19;;;;;;;21.90;18.88;;;;;;;;;;2073284;28;99932;-14
2021/07/20 05:43:24;;;;;;;21.13;17.65;;;;;;;;;;2072585;28;99965;-14
2021/07/20 05:44:27;;;;;;;21.75;17.45;;;;;;;;;;2073347;28;100319;-11
2021/07/20 05:45:30;;;;;;;20.92;17.92;;;;;;;;;;2064779;28;99828;-14
2021/07/20 05:46:33;;;;;;;21.15;17.95;;;;;;;;;;2056679;28;99981;-15
2021/07/20 05:47:35;;;;;;;22.02;17.52;;;;;;;;;;2057213;28;100081;-14
2021/07/20 05:48:38;;;;;;;21.50;18.13;;;;;;;;;;2064982;28;100107;-13
2021/07/20 05:49:43;;;;;;;21.45;18.05;;;;;;;;;;2065011;28;100006;-14
2021/07/20 05:50:50;;;;;;;21.52;17.70;;;;;;;;;;2072682;28;99980;-15
2021/07/20 05:52:16;;;;;;;22.73;18.40;;;;;;;;;;2072246;28;100014;-15
2021/07/20 05:53:21;;;;;;;20.35;17.02;;;;;;;;;;2072846;28;99980;-14
2021/07/20 05:54:24;;;;;;;20.42;18.23;;;;;;;;;;2064944;28;100039;-14
2021/07/20 05:55:49;;;;;;;21.30;17.13;;;;;;;;;;2072398;28;99955;-14
2021/07/20 05:56:50;;;;;;;20.05;17.67;;;;;;;;;;2072823;28;100017;-14
2021/07/20 05:58:07;;;;;;;20.30;17.35;;;;;;;;;;2063877;28;100203;-14
2021/07/20 05:59:09;;;;;;;21.83;18.08;;;;;;;;;;2065014;28;99868;-13
2021/07/20 06:00:14;;;;;;;22.08;18.20;;;;;;;;;;2073099;28;99937;-13
2021/07/20 06:01:31;;;;;;;20.25;17.95;;;;;;;;;;2058717;28;100337;-13
2021/07/20 06:02:32;;;;;;;20.67;16.85;;;;;;;;;;2059289;28;99972;-14
2021/07/20 06:03:35;;;;;;;20.15;17.83;;;;;;;;;;2073182;28;100124;-14
2021/07/20 06:04:37;;;;;;;20.20;17.92;;;;;;;;;;2073606;28;100019;-14
2021/07/20 06:05:38;;;;;;;19.60;16.65;;;;;;;;;;2072946;28;99985;-14
2021/07/20 06:06:41;;;;;;;21.77;17.60;;;;;;;;;;2072906;28;100276;-13
2021/07/20 06:07:44;;;;;;;20.13;17.50;;;;;;;;;;2072912;28;100110;-16
2021/07/20 06:08:45;;;;;;;22.25;17.50;;;;;;;;;;2073071;28;100034;-14
2021/07/20 06:09:48;;;;;;;20.40;17.23;;;;;;;;;;2072997;28;100367;-14
2021/07/20 06:11:04;;;;;;;21.67;18.05;;;;;;;;;;2072798;28;99834;-15
2021/07/20 06:12:08;;;;;;;20.95;17.42;;;;;;;;;;2073645;28;100352;-14
2021/07/20 06:13:11;;;;;;;20.83;16.92;;;;;;;;;;2074019;28;99780;-14
2021/07/20 06:14:14;;;;;;;20.50;18.10;;;;;;;;;;2073222;28;99952;-14
2021/07/20 06:15:17;;;;;;;21.63;17.58;;;;;;;;;;2064495;28;99948;-13
2021/07/20 06:16:22;;;;;;;20.45;17.20;;;;;;;;;;2064471;28;99882;-12
2021/07/20 06:17:24;;;;;;;20.02;17.38;;;;;;;;;;2073575;28;99889;-12
2021/07/20 06:18:25;;;;;;;19.85;16.58;;;;;;;;;;2064197;28;100462;-14
2021/07/20 06:19:33;;;;;;;19.55;17.40;;;;;;;;;;2065030;28;99845;-12
2021/07/20 06:20:38;;;;;;;20.85;17.10;;;;;;;;;;2073315;28;99793;-14
2021/07/20 06:21:42;;;;;;;19.92;17.25;;;;;;;;;;2072787;28;99863;-12
2021/07/20 06:22:53;;;;;;;19.33;17.25;;;;;;;;;;2065302;28;99945;-13
2021/07/20 06:24:01;;;;;;;18.70;16.17;;;;;;;;;;2073253;28;99905;-14
2021/07/20 06:25:04;;;;;;;19.27;17.17;;;;;;;;;;2072734;28;100162;-13
2021/07/20 06:26:05;;;;;;;18.60;16.55;;;;;;;;;;2072897;28;100032;-13
2021/07/20 06:27:06;;;;;;;20.50;17.10;;;;;;;;;;2073136;28;99931;-13
2021/07/20 06:28:08;;;;;;;19.05;16.90;;;;;;;;;;2073488;28;99825;-13
2021/07/20 06:29:09;;;;;;;21.30;17.67;;;;;;;;;;2072322;28;99839;-14
2021/07/20 06:30:13;;;;;;;18.15;15.93;;;;;;;;;;2072651;28;100409;-13
2021/07/20 06:31:18;;;;;;;21.55;17.08;;;;;;;;;;2073079;28;100033;-12
2021/07/20 06:32:21;;;;;;;19.73;16.65;;;;;;;;;;2072626;28;99890;-14
2021/07/20 06:33:25;;;;;;;19.83;17.67;;;;;;;;;;2072651;28;100024;-12